Kona Rose — WCW4451 — position and weather

sailwx.info

Track history (hours):
 
Tides and Currents Weather Stations Pressure Air Temp Water Temp Dewpoint Dewpoint Depression Visibility Wind Speed Wind Dir Waves Ship Positions

Kona Rose

Owner: KONA ROSE INC, SEATTLE, WA. More information available from US FCC via Universal Licensing System and Coast Guard Vessel Documentation Center.

Last reported at 2018-May-28 09:42 UTC. Time now 2018-Jun-24 16:30 UTC.
Position N 54°16' W 130°32'.
Warning: this ship's position is 27 days out of date.

Length 17 m.

Type: Fishing. MMSI: 367091920.

Date/timePositionNaut miles runAvg speedWind from/ knotsBaromVisibWave heightAir tempDewpointWater temp
2018-May-28 09:42N 54°16' W 130°32'2 9.3
2018-May-28 09:30N 54°15' W 130°30'5 9.0
2018-May-28 09:00N 54°11' W 130°26'5 9.3
2018-May-28 08:29N 54°07' W 130°22'4 8.9
2018-May-28 08:00N 54°04' W 130°16'161 8.0
2018-May-27 11:57N 51°47' W 127°55'4 9.2
2018-May-27 11:30N 51°43' W 127°54'5 9.2
2018-May-27 11:00N 51°39' W 127°54'42 8.0
2018-May-27 05:49N 50°59' W 127°33'3 8.4
2018-May-27 05:29N 50°57' W 127°29'5 7.8
2018-May-27 04:47N 50°54' W 127°22'90 7.4
2018-May-26 16:32N 50°08' W 125°21'010.1
2018-May-26 16:30N 50°07' W 125°21'  
2018-May-23 00:26N 47°54' W 122°29'4 8.3
2018-May-23 00:00N 47°50' W 122°27'7 8.6
2018-May-22 23:11N 47°44' W 122°25'1 8.3
2018-May-22 23:00N 47°42' W 122°25'2 4.3
2018-May-22 22:29N 47°40' W 122°24'  
Track history (hours):
 
Tides and Currents Weather Stations Pressure Air Temp Water Temp Dewpoint Dewpoint Depression Visibility Wind Speed Wind Dir Waves Ship Positions

Kona Rose

Owner: KONA ROSE INC, SEATTLE, WA. More information available from US FCC via Universal Licensing System and Coast Guard Vessel Documentation Center.

Last reported at 2018-May-28 09:42 UTC. Time now 2018-Jun-24 16:30 UTC.
Position N 54°16' W 130°32'.
Warning: this ship's position is 27 days out of date.

Length 17 m.

Type: Fishing. MMSI: 367091920.

Date/timePositionNaut miles runAvg speedWind from/ knotsBaromVisibWave heightAir tempDewpointWater temp
2018-May-28 09:42N 54°16' W 130°32'2 9.3
2018-May-28 09:30N 54°15' W 130°30'5 9.0
2018-May-28 09:00N 54°11' W 130°26'5 9.3
2018-May-28 08:29N 54°07' W 130°22'4 8.9
2018-May-28 08:00N 54°04' W 130°16'161 8.0
2018-May-27 11:57N 51°47' W 127°55'4 9.2
2018-May-27 11:30N 51°43' W 127°54'5 9.2
2018-May-27 11:00N 51°39' W 127°54'42 8.0
2018-May-27 05:49N 50°59' W 127°33'3 8.4
2018-May-27 05:29N 50°57' W 127°29'5 7.8
2018-May-27 04:47N 50°54' W 127°22'90 7.4
2018-May-26 16:32N 50°08' W 125°21'010.1
2018-May-26 16:30N 50°07' W 125°21'  
2018-May-23 00:26N 47°54' W 122°29'4 8.3
2018-May-23 00:00N 47°50' W 122°27'7 8.6
2018-May-22 23:11N 47°44' W 122°25'1 8.3
2018-May-22 23:00N 47°42' W 122°25'2 4.3
2018-May-22 22:29N 47°40' W 122°24'  

Dump ship's entire track history